createdAt,value
2022-08-03T00:02:18.847Z,22.30
2022-08-03T00:04:46.640Z,22.30
2022-08-03T00:07:14.287Z,22.30
2022-08-03T00:09:41.644Z,22.30
2022-08-03T00:12:09.198Z,22.20
2022-08-03T00:14:36.516Z,22.20
2022-08-03T00:17:03.801Z,22.10
2022-08-03T00:19:31.208Z,22.10
2022-08-03T00:21:58.535Z,22.10
2022-08-03T00:24:25.795Z,22.00
2022-08-03T00:26:53.506Z,21.90
2022-08-03T00:29:20.886Z,21.90
2022-08-03T00:31:59.207Z,21.80
2022-08-03T00:34:36.307Z,21.80
2022-08-03T00:37:14.680Z,21.80
2022-08-03T00:39:46.216Z,21.80
2022-08-03T00:42:14.058Z,21.80
2022-08-03T00:44:42.972Z,21.80
2022-08-03T00:47:11.591Z,21.80
2022-08-03T00:49:41.126Z,21.80
2022-08-03T00:52:14.030Z,21.80
2022-08-03T00:54:41.591Z,21.80
2022-08-03T00:57:09.420Z,21.70
2022-08-03T00:59:38.340Z,21.70
2022-08-03T01:02:06.489Z,21.70
2022-08-03T01:04:33.945Z,21.70
2022-08-03T01:07:15.562Z,21.70
2022-08-03T01:09:45.653Z,21.60
2022-08-03T01:12:25.362Z,21.60
2022-08-03T01:15:02.948Z,21.60
2022-08-03T01:17:51.414Z,21.50
2022-08-03T01:20:22.606Z,21.50
2022-08-03T01:23:28.847Z,21.40
2022-08-03T01:26:08.661Z,21.40
2022-08-03T01:28:59.988Z,21.40
2022-08-03T01:33:00.186Z,21.40
2022-08-03T01:34:31.562Z,21.40
2022-08-03T01:37:03.222Z,21.40
2022-08-03T01:39:33.031Z,21.30
2022-08-03T01:42:06.460Z,21.30
2022-08-03T01:44:41.140Z,21.30
2022-08-03T01:47:10.812Z,21.30
2022-08-03T01:49:40.827Z,21.20
2022-08-03T01:52:09.136Z,21.20
2022-08-03T01:54:43.018Z,21.20
2022-08-03T01:57:11.575Z,21.20
2022-08-03T01:59:41.623Z,21.20
2022-08-03T02:02:27.649Z,21.10
2022-08-03T02:05:03.052Z,21.10
2022-08-03T02:07:31.970Z,21.10
2022-08-03T02:10:01.073Z,21.10
2022-08-03T02:12:31.434Z,21.00
2022-08-03T02:15:00.341Z,21.00
2022-08-03T02:17:39.032Z,21.00
2022-08-03T02:20:13.542Z,20.90
2022-08-03T02:22:42.068Z,20.80
2022-08-03T02:25:11.562Z,20.80
2022-08-03T02:27:46.145Z,20.80
2022-08-03T02:30:14.548Z,20.70
2022-08-03T02:32:48.600Z,20.60
2022-08-03T02:35:18.472Z,20.60
2022-08-03T02:37:51.946Z,20.50
2022-08-03T02:40:21.206Z,20.50
2022-08-03T02:42:53.520Z,20.50
2022-08-03T02:45:22.690Z,20.50
2022-08-03T02:47:53.960Z,20.50
2022-08-03T02:50:23.828Z,20.60
2022-08-03T02:52:52.859Z,20.50
2022-08-03T02:55:21.957Z,20.50
2022-08-03T02:57:50.369Z,20.50
2022-08-03T03:00:28.170Z,20.50
2022-08-03T03:03:01.453Z,20.50
2022-08-03T03:05:56.041Z,20.40
2022-08-03T03:08:26.150Z,20.40
2022-08-03T03:11:00.423Z,20.40
2022-08-03T03:13:30.303Z,20.30
2022-08-03T03:16:01.465Z,20.30
2022-08-03T03:18:30.939Z,20.30
2022-08-03T03:20:59.402Z,20.30
2022-08-03T03:23:28.575Z,20.30
2022-08-03T03:25:56.491Z,20.20
2022-08-03T03:28:25.134Z,20.10
2022-08-03T03:30:53.462Z,20.10
2022-08-03T03:33:22.464Z,20.00
2022-08-03T03:35:51.650Z,20.00
2022-08-03T03:38:20.140Z,20.00
2022-08-03T03:40:48.109Z,19.90
2022-08-03T03:43:15.671Z,19.90
2022-08-03T03:45:43.658Z,19.90
2022-08-03T03:48:11.512Z,19.90
2022-08-03T03:50:42.367Z,19.90
2022-08-03T03:53:12.131Z,20.00
2022-08-03T03:55:59.807Z,20.00
2022-08-03T03:58:28.390Z,20.10
2022-08-03T04:00:55.927Z,20.10
2022-08-03T04:03:23.603Z,20.10
2022-08-03T04:06:09.447Z,20.20
2022-08-03T04:08:55.469Z,20.30
2022-08-03T04:11:53.519Z,20.30
2022-08-03T04:14:40.418Z,20.50
2022-08-03T04:17:09.431Z,21.10
2022-08-03T04:19:47.622Z,21.70
2022-08-03T04:22:19.942Z,22.40
2022-08-03T04:24:51.778Z,23.00
2022-08-03T04:27:25.591Z,23.40
2022-08-03T04:29:56.759Z,23.80
2022-08-03T04:32:28.631Z,24.20
2022-08-03T04:34:56.496Z,24.40
2022-08-03T04:37:31.999Z,24.70
2022-08-03T04:40:03.611Z,25.10
2022-08-03T04:42:33.240Z,25.30
2022-08-03T04:45:02.217Z,25.60
2022-08-03T04:47:32.382Z,25.80
2022-08-03T04:50:02.932Z,26.10
2022-08-03T04:52:31.237Z,26.20
2022-08-03T04:54:58.608Z,26.30
2022-08-03T04:57:25.991Z,26.50
2022-08-03T05:00:02.650Z,26.70
2022-08-03T05:02:31.811Z,27.00
2022-08-03T05:04:59.766Z,27.20
2022-08-03T05:07:35.959Z,27.30
2022-08-03T05:10:15.056Z,27.40
2022-08-03T05:12:45.452Z,27.60
2022-08-03T05:15:13.302Z,27.80
2022-08-03T05:17:41.472Z,27.90
2022-08-03T05:20:09.824Z,28.10
2022-08-03T05:22:37.194Z,28.20
2022-08-03T05:25:05.068Z,28.40
2022-08-03T05:27:32.490Z,28.50
2022-08-03T05:30:29.620Z,28.60
2022-08-03T05:32:47.560Z,28.70
2022-08-03T05:36:01.746Z,28.60
2022-08-03T05:38:03.486Z,28.60
2022-08-03T05:40:31.154Z,28.50
2022-08-03T05:42:59.130Z,28.60
2022-08-03T05:45:28.430Z,28.70
2022-08-03T05:47:56.253Z,28.90
2022-08-03T05:50:23.748Z,29.00
2022-08-03T05:52:51.241Z,29.20
2022-08-03T05:55:19.396Z,29.30
2022-08-03T05:57:49.241Z,29.30
2022-08-03T06:00:17.174Z,29.30
2022-08-03T06:02:44.509Z,29.40
2022-08-03T06:05:12.086Z,29.60
2022-08-03T06:07:39.520Z,29.60
2022-08-03T06:10:36.945Z,29.80
2022-08-03T06:12:56.310Z,29.90
2022-08-03T06:15:23.573Z,30.10
2022-08-03T06:17:52.042Z,30.20
2022-08-03T06:20:21.237Z,30.20
2022-08-03T06:23:00.016Z,30.30
2022-08-03T06:25:29.041Z,30.40
2022-08-03T06:27:56.566Z,30.50
2022-08-03T06:30:24.191Z,30.60
2022-08-03T06:32:52.546Z,30.70
2022-08-03T06:35:20.651Z,30.80
2022-08-03T06:37:50.440Z,30.80
2022-08-03T06:40:24.303Z,30.90
2022-08-03T06:42:51.947Z,31.00
2022-08-03T06:45:19.269Z,31.00
2022-08-03T06:47:46.693Z,31.00
2022-08-03T06:50:17.276Z,31.00
2022-08-03T06:52:45.527Z,30.90
2022-08-03T06:55:12.987Z,30.90
2022-08-03T06:57:40.456Z,30.90
2022-08-03T07:00:12.437Z,30.90
2022-08-03T07:02:40.337Z,30.90
2022-08-03T07:05:08.824Z,30.80
2022-08-03T07:07:37.208Z,30.60
2022-08-03T07:10:06.109Z,30.50
2022-08-03T07:12:34.535Z,30.40
2022-08-03T07:15:03.734Z,30.40
2022-08-03T07:17:33.364Z,30.40
2022-08-03T07:20:02.056Z,30.50
2022-08-03T07:22:30.193Z,30.50
2022-08-03T07:24:57.718Z,30.50
2022-08-03T07:27:27.046Z,30.60
2022-08-03T07:29:55.402Z,30.60
2022-08-03T07:32:23.153Z,30.60
2022-08-03T07:34:50.646Z,30.70
2022-08-03T07:37:18.099Z,30.80
2022-08-03T07:39:46.251Z,30.80
2022-08-03T07:42:14.033Z,30.90
2022-08-03T07:44:41.552Z,30.90
2022-08-03T07:47:09.245Z,30.90
2022-08-03T07:49:41.172Z,30.90
2022-08-03T07:52:28.520Z,30.90
2022-08-03T07:54:55.958Z,31.00
2022-08-03T07:57:23.523Z,31.10
2022-08-03T08:00:01.620Z,31.30
2022-08-03T08:02:40.101Z,31.40
2022-08-03T08:05:07.934Z,31.60
2022-08-03T08:07:35.203Z,31.60
2022-08-03T08:10:02.594Z,31.60
2022-08-03T08:12:29.983Z,31.70
2022-08-03T08:14:57.442Z,31.70
2022-08-03T08:17:25.217Z,31.80
2022-08-03T08:19:53.281Z,31.90
2022-08-03T08:22:30.073Z,31.90
2022-08-03T08:24:59.452Z,31.90
2022-08-03T08:27:27.144Z,32.00
2022-08-03T08:29:58.862Z,32.10
2022-08-03T08:32:29.893Z,32.20
2022-08-03T08:34:57.815Z,32.10
2022-08-03T08:37:25.230Z,32.20
2022-08-03T08:39:52.543Z,32.10
2022-08-03T08:42:19.879Z,32.10
2022-08-03T08:44:47.563Z,32.10
2022-08-03T08:47:15.602Z,32.10
2022-08-03T08:49:58.190Z,32.10
2022-08-03T08:52:32.165Z,32.30
2022-08-03T08:55:03.969Z,32.40
2022-08-03T08:57:44.950Z,32.40
2022-08-03T09:00:15.258Z,32.40
2022-08-03T09:02:43.872Z,32.50
2022-08-03T09:05:13.340Z,32.50
2022-08-03T09:07:44.761Z,32.60
2022-08-03T09:10:14.247Z,32.70
2022-08-03T09:12:51.887Z,32.80
2022-08-03T09:15:21.876Z,32.80
2022-08-03T09:17:51.511Z,33.00
2022-08-03T09:20:20.698Z,33.10
2022-08-03T09:23:00.262Z,33.20
2022-08-03T09:25:42.031Z,33.20
2022-08-03T09:28:11.870Z,33.20
2022-08-03T09:30:41.664Z,33.40
2022-08-03T09:33:17.274Z,33.50
2022-08-03T09:35:57.297Z,33.40
2022-08-03T09:38:28.679Z,33.40
2022-08-03T09:41:00.287Z,33.40
2022-08-03T09:43:28.719Z,33.50
2022-08-03T09:46:07.366Z,33.60
2022-08-03T09:48:35.645Z,33.70
2022-08-03T09:51:13.056Z,33.80
2022-08-03T09:53:59.067Z,33.60
2022-08-03T09:56:46.877Z,33.60
2022-08-03T09:59:24.042Z,33.60
2022-08-03T10:01:52.646Z,33.70
2022-08-03T10:04:20.322Z,33.70
2022-08-03T10:07:07.226Z,33.70
2022-08-03T10:09:35.620Z,33.80
2022-08-03T10:12:14.098Z,33.70
2022-08-03T10:14:45.464Z,33.60
2022-08-03T10:17:13.555Z,33.70
2022-08-03T10:19:41.884Z,33.50
2022-08-03T10:22:16.758Z,33.40
2022-08-03T10:24:52.915Z,33.60
2022-08-03T10:27:22.280Z,33.80
2022-08-03T10:29:55.168Z,33.90
2022-08-03T10:32:31.816Z,33.90
2022-08-03T10:35:21.571Z,34.10
2022-08-03T10:38:09.942Z,34.30
2022-08-03T10:40:48.577Z,34.40
2022-08-03T10:43:28.843Z,34.50
2022-08-03T10:45:56.837Z,34.50
2022-08-03T10:48:26.223Z,34.50
2022-08-03T10:50:54.014Z,34.50
2022-08-03T10:53:39.428Z,34.50
2022-08-03T10:56:35.705Z,34.50
2022-08-03T10:59:12.553Z,34.40
2022-08-03T11:02:00.079Z,34.10
2022-08-03T11:04:30.451Z,33.90
2022-08-03T11:07:17.828Z,34.00
2022-08-03T11:09:50.315Z,34.20
2022-08-03T11:12:36.396Z,34.40
2022-08-03T11:15:07.671Z,34.60
2022-08-03T11:17:46.104Z,34.70
2022-08-03T11:20:52.475Z,34.70
2022-08-03T11:24:04.942Z,34.60
2022-08-03T11:26:29.065Z,34.70
2022-08-03T11:29:29.437Z,34.80
2022-08-03T11:31:57.360Z,34.90
2022-08-03T11:34:25.122Z,35.00
2022-08-03T11:37:22.699Z,35.10
2022-08-03T11:39:53.342Z,35.10
2022-08-03T11:42:23.923Z,34.80
2022-08-03T11:44:52.959Z,34.40
2022-08-03T11:47:21.823Z,34.10
2022-08-03T11:49:51.032Z,34.00
2022-08-03T11:52:19.459Z,34.30
2022-08-03T11:54:57.213Z,34.80
2022-08-03T11:59:19.212Z,35.20
2022-08-03T12:00:32.772Z,35.50
2022-08-03T12:03:09.183Z,35.70
2022-08-03T12:05:51.345Z,35.80
2022-08-03T12:08:32.841Z,35.90
2022-08-03T12:11:04.458Z,35.80
2022-08-03T12:14:44.471Z,35.90
2022-08-03T12:16:39.868Z,35.90
2022-08-03T12:19:08.124Z,36.10
2022-08-03T12:21:35.543Z,36.10
2022-08-03T12:24:04.756Z,36.00
2022-08-03T12:26:45.344Z,35.90
2022-08-03T12:29:27.445Z,35.90
2022-08-03T12:31:56.128Z,35.90
2022-08-03T12:34:23.693Z,36.00
2022-08-03T12:36:59.645Z,36.00
2022-08-03T12:39:30.865Z,35.80
2022-08-03T12:41:58.847Z,35.80
2022-08-03T12:44:34.904Z,35.90
2022-08-03T12:47:03.631Z,36.10
2022-08-03T12:49:49.052Z,36.20
2022-08-03T12:52:18.337Z,36.30
2022-08-03T12:55:19.236Z,36.30
2022-08-03T12:57:46.833Z,36.30
2022-08-03T13:00:28.807Z,36.10
2022-08-03T13:03:30.332Z,35.90
2022-08-03T13:05:49.850Z,35.80
2022-08-03T13:08:25.427Z,35.80
2022-08-03T13:10:52.980Z,35.70
2022-08-03T13:13:38.828Z,35.70
2022-08-03T13:16:06.148Z,35.60
2022-08-03T13:18:33.555Z,35.60
2022-08-03T13:21:02.256Z,35.60
2022-08-03T13:23:30.130Z,35.50
2022-08-03T13:25:57.388Z,35.50
2022-08-03T13:28:24.815Z,35.50
2022-08-03T13:30:54.279Z,35.50
2022-08-03T13:33:21.737Z,35.30
2022-08-03T13:35:49.027Z,35.20
2022-08-03T13:38:17.293Z,35.00
2022-08-03T13:40:44.730Z,35.10
2022-08-03T13:43:13.804Z,35.20
2022-08-03T13:45:42.859Z,35.30
2022-08-03T13:48:13.265Z,35.40
2022-08-03T13:50:43.094Z,35.30
2022-08-03T13:53:10.820Z,35.30
2022-08-03T13:55:38.254Z,35.30
2022-08-03T13:58:08.108Z,35.40
2022-08-03T14:00:35.618Z,35.40
2022-08-03T14:03:09.505Z,35.40
2022-08-03T14:05:41.133Z,35.40
2022-08-03T14:08:08.783Z,35.30
2022-08-03T14:10:38.495Z,35.40
2022-08-03T14:13:06.816Z,35.40
2022-08-03T14:15:37.682Z,35.40
2022-08-03T14:18:15.933Z,35.40
2022-08-03T14:20:56.468Z,35.30
2022-08-03T14:23:25.156Z,35.30
2022-08-03T14:25:53.221Z,35.10
2022-08-03T14:28:23.183Z,35.10
2022-08-03T14:30:52.124Z,35.20
2022-08-03T14:33:20.244Z,35.30
2022-08-03T14:35:48.469Z,35.30
2022-08-03T14:38:16.444Z,35.30
2022-08-03T14:40:44.137Z,35.30
2022-08-03T14:43:11.781Z,35.30
2022-08-03T14:45:39.946Z,35.30
2022-08-03T14:50:31.595Z,35.20
2022-08-03T14:50:55.571Z,35.10
2022-08-03T14:53:23.666Z,35.10
2022-08-03T14:55:52.938Z,35.10
2022-08-03T14:58:22.035Z,35.10
2022-08-03T15:00:51.749Z,35.10
2022-08-03T15:03:23.956Z,35.20
2022-08-03T15:05:56.343Z,35.10
2022-08-03T15:08:25.748Z,34.80
2022-08-03T15:10:54.487Z,34.80
2022-08-03T15:13:22.348Z,34.80
2022-08-03T15:15:50.120Z,34.90
2022-08-03T15:18:17.705Z,34.90
2022-08-03T15:20:46.698Z,34.90
2022-08-03T15:23:15.962Z,35.00
2022-08-03T15:26:29.609Z,35.10
2022-08-03T15:28:32.586Z,35.00
2022-08-03T15:31:00.591Z,34.90
2022-08-03T15:33:29.065Z,34.90
2022-08-03T15:35:56.708Z,34.90
2022-08-03T15:38:25.820Z,34.80
2022-08-03T15:40:55.099Z,34.80
2022-08-03T15:43:23.495Z,34.80
2022-08-03T15:46:12.775Z,34.80
2022-08-03T15:48:39.470Z,34.70
2022-08-03T15:51:07.718Z,34.50
2022-08-03T15:53:35.260Z,34.50
2022-08-03T15:56:08.025Z,34.50
2022-08-03T15:59:03.204Z,34.40
2022-08-03T16:01:27.130Z,34.50
2022-08-03T16:03:54.815Z,34.50
2022-08-03T16:06:29.517Z,34.50
2022-08-03T16:09:04.875Z,34.60
2022-08-03T16:11:32.838Z,34.70
2022-08-03T16:14:12.448Z,34.70
2022-08-03T16:16:48.919Z,34.60
2022-08-03T16:19:16.467Z,34.60
2022-08-03T16:21:48.833Z,34.60
2022-08-03T16:24:27.585Z,34.60
2022-08-03T16:26:56.204Z,34.60
2022-08-03T16:29:24.218Z,34.50
2022-08-03T16:31:52.661Z,34.40
2022-08-03T16:34:21.182Z,34.30
2022-08-03T16:36:48.756Z,34.20
2022-08-03T16:39:16.127Z,34.10
2022-08-03T16:41:53.854Z,34.10
2022-08-03T16:44:29.899Z,34.00
2022-08-03T16:46:57.944Z,33.90
2022-08-03T16:49:54.833Z,33.90
2022-08-03T16:52:13.295Z,33.90
2022-08-03T16:54:40.917Z,33.90
2022-08-03T16:57:11.078Z,33.80
2022-08-03T16:59:39.399Z,33.80
2022-08-03T17:02:10.606Z,33.80
2022-08-03T17:04:40.394Z,33.80
2022-08-03T17:07:08.802Z,33.70
2022-08-03T17:09:38.901Z,33.60
2022-08-03T17:12:10.967Z,33.50
2022-08-03T17:14:39.235Z,33.50
2022-08-03T17:17:16.685Z,33.40
2022-08-03T17:19:47.076Z,33.30
2022-08-03T17:22:24.691Z,33.30
2022-08-03T17:24:53.596Z,33.30
2022-08-03T17:28:49.200Z,33.20
2022-08-03T17:30:15.912Z,33.10
2022-08-03T17:32:57.169Z,33.10
2022-08-03T17:35:36.365Z,33.00
2022-08-03T17:38:10.393Z,32.90
2022-08-03T17:40:47.947Z,32.90
2022-08-03T17:44:08.161Z,32.80
2022-08-03T17:46:07.267Z,32.70
2022-08-03T17:48:41.503Z,32.60
2022-08-03T17:51:28.425Z,32.60
2022-08-03T17:54:18.569Z,32.50
2022-08-03T17:57:22.521Z,32.40
2022-08-03T18:00:32.443Z,32.30
2022-08-03T18:03:21.440Z,32.20
2022-08-03T18:06:11.821Z,32.10
2022-08-03T18:08:55.457Z,32.00
2022-08-03T18:11:24.219Z,31.80
2022-08-03T18:14:27.239Z,31.70
2022-08-03T18:17:01.681Z,31.60
2022-08-03T18:20:03.559Z,31.50
2022-08-03T18:22:21.150Z,31.40
2022-08-03T18:24:53.102Z,31.20
2022-08-03T18:27:22.658Z,31.10
2022-08-03T18:29:51.467Z,30.90
2022-08-03T18:32:19.109Z,30.70
2022-08-03T18:34:53.819Z,30.60
2022-08-03T18:37:25.947Z,30.40
2022-08-03T18:39:58.182Z,30.20
2022-08-03T18:42:26.899Z,30.00
2022-08-03T18:44:55.890Z,29.90
2022-08-03T18:47:52.334Z,29.80
2022-08-03T18:50:41.103Z,29.60
2022-08-03T18:54:03.288Z,29.40
2022-08-03T18:56:50.050Z,29.30
2022-08-03T18:59:36.570Z,29.10
2022-08-03T19:02:23.387Z,29.00
2022-08-03T19:04:54.020Z,28.80
2022-08-03T19:07:35.878Z,28.70
2022-08-03T19:10:09.763Z,28.60
2022-08-03T19:12:42.439Z,28.40
2022-08-03T19:15:15.625Z,28.30
2022-08-03T19:17:53.675Z,28.20
2022-08-03T19:20:26.784Z,28.20
2022-08-03T19:22:58.385Z,28.10
2022-08-03T19:25:35.160Z,28.00
2022-08-03T19:28:06.055Z,27.90
2022-08-03T19:30:39.982Z,27.80
2022-08-03T19:33:13.360Z,27.70
2022-08-03T19:35:55.202Z,27.70
2022-08-03T19:38:29.163Z,27.60
2022-08-03T19:40:59.711Z,27.60
2022-08-03T19:43:49.592Z,27.50
2022-08-03T19:46:22.441Z,27.50
2022-08-03T19:49:14.786Z,27.40
2022-08-03T19:54:53.137Z,27.20
2022-08-03T19:57:26.845Z,27.10
2022-08-03T19:59:56.634Z,27.00
2022-08-03T20:02:26.615Z,26.90
2022-08-03T20:04:59.887Z,26.80
2022-08-03T20:07:30.900Z,26.70
2022-08-03T20:10:01.490Z,26.70
2022-08-03T20:12:33.217Z,26.60
2022-08-03T20:15:06.863Z,26.50
2022-08-03T20:17:54.398Z,26.50
2022-08-03T20:20:26.047Z,26.40
2022-08-03T20:22:57.709Z,26.30
2022-08-03T20:25:37.900Z,26.30
2022-08-03T20:33:49.133Z,26.10
2022-08-03T20:36:18.823Z,26.10
2022-08-03T20:38:48.030Z,26.00
2022-08-03T20:41:17.132Z,26.00
2022-08-03T20:43:45.478Z,25.90
2022-08-03T20:46:31.781Z,25.90
2022-08-03T20:49:03.912Z,25.80
2022-08-03T20:51:50.158Z,25.70
2022-08-03T20:54:29.611Z,25.60
2022-08-03T20:57:03.765Z,25.50
2022-08-03T20:59:47.106Z,25.40
2022-08-03T21:02:30.112Z,25.40
2022-08-03T21:05:03.536Z,25.30
2022-08-03T21:08:04.893Z,25.30
2022-08-03T21:10:38.848Z,25.20
2022-08-03T21:13:03.088Z,27.30
2022-08-03T21:13:12.501Z,26.20
2022-08-03T21:13:13.954Z,26.20
2022-08-03T21:13:18.841Z,25.10
2022-08-03T21:16:06.164Z,25.00
2022-08-03T21:18:42.603Z,25.00
2022-08-03T21:21:16.276Z,24.90
2022-08-03T21:23:48.640Z,24.90
2022-08-03T21:26:19.024Z,24.80
2022-08-03T21:28:48.642Z,24.70
2022-08-03T21:31:21.368Z,24.60
2022-08-03T21:33:58.049Z,24.60
2022-08-03T21:36:31.977Z,24.50
2022-08-03T21:38:59.792Z,24.50
2022-08-03T21:41:29.641Z,24.40
2022-08-03T21:43:57.957Z,24.30
2022-08-03T21:46:29.844Z,24.20
2022-08-03T21:50:07.932Z,24.10
2022-08-03T21:51:50.455Z,24.10
2022-08-03T21:54:20.859Z,24.00
2022-08-03T21:56:52.416Z,23.90
2022-08-03T21:59:21.852Z,23.90
2022-08-03T22:01:55.438Z,23.80
2022-08-03T22:04:55.635Z,23.80
2022-08-03T22:07:15.760Z,23.70
2022-08-03T22:09:51.378Z,23.70
2022-08-03T22:12:23.117Z,23.70
2022-08-03T22:15:00.489Z,23.60
2022-08-03T22:17:55.263Z,23.60
2022-08-03T22:20:25.298Z,23.60
2022-08-03T22:22:56.575Z,23.60
2022-08-03T22:25:31.864Z,23.50
2022-08-03T22:28:10.638Z,23.50
2022-08-03T22:30:39.511Z,23.50
2022-08-03T22:33:11.025Z,23.50
2022-08-03T22:35:44.305Z,23.40
2022-08-03T22:38:17.432Z,23.40
2022-08-03T22:40:46.968Z,23.30
2022-08-03T22:43:14.651Z,23.30
2022-08-03T22:46:10.239Z,23.20
2022-08-03T22:48:41.063Z,23.10
2022-08-03T22:51:09.330Z,23.00
2022-08-03T22:53:40.148Z,23.00
2022-08-03T22:56:08.908Z,23.00
2022-08-03T22:58:36.311Z,22.90
2022-08-03T23:01:07.885Z,22.90
2022-08-03T23:03:58.815Z,22.80
2022-08-03T23:06:37.736Z,22.80
2022-08-03T23:09:13.974Z,22.80
2022-08-03T23:11:46.026Z,22.70
2022-08-03T23:14:15.795Z,22.60
2022-08-03T23:16:45.116Z,22.50
2022-08-03T23:19:17.081Z,22.50
2022-08-03T23:22:02.399Z,22.40
2022-08-03T23:24:34.214Z,22.40
2022-08-03T23:27:03.982Z,22.30
2022-08-03T23:29:33.796Z,22.30
2022-08-03T23:32:01.960Z,22.30
2022-08-03T23:34:50.167Z,22.30
2022-08-03T23:37:19.376Z,22.20
2022-08-03T23:39:48.850Z,22.20
2022-08-03T23:42:20.612Z,22.20
2022-08-03T23:44:53.669Z,22.10
2022-08-03T23:47:21.264Z,22.10
2022-08-03T23:49:49.785Z,22.10
2022-08-03T23:52:32.915Z,22.00
2022-08-03T23:55:26.656Z,21.90
2022-08-03T23:58:22.808Z,21.90
